Popejoy, Iowa
Current Conditions -  °F | °C
As of 4:35 PM on Sunday 23 Nov 2014 (Local Time) from KIFA Reporting Station
Haze Haze  
Wind Chill: 37°   Ceiling: 500
Heat Index: 45°   Visibility: 5mi
Dew Point: 43°   Wind: 20mph
Humidity: 95%   Direction: 320°NW
Pressure: 29.37"   Gusts: 24mph
Location:  42.59°N, 93.43°W
Report Text: KIFA 232235Z AUTO 32017G21KT 5SM BR OVC005 07/06 A2937 RMK AO2 T00700063
Loading
Personal Weather Stations






























Interactive Weather Map New forecast layout! Learn more

10-Day Weather Forecast

Advertisements
Track Severe Weather on mobile